ADDS METAR Data INFO
IDs: Format: Raw Decoded Include TAF

Data at: 1826 UTC 24 Nov 2017

KILE 241756Z AUTO 20007KT 10SM CLR 23/04 A2994 RMK AO2 SLP155 T02330044 10233 20039 58015
KILE 241656Z AUTO 20007KT 10SM CLR 21/04 A2998 RMK AO2 SLP169 T02060044
KILE 241556Z AUTO 22005KT 10SM CLR 16/03 A2999 RMK AO2 SLP175 T01610028
KILE 241456Z AUTO 16003KT 10SM CLR 12/02 A2999 RMK AO2 SLP177 T01170022 50004
KILE 241356Z AUTO 00000KT 10SM CLR 09/02 A3000 RMK AO2 SLP182 T00890017
KILE 241256Z AUTO 00000KT 10SM CLR 05/01 A3000 RMK AO2 SLP181 T00500006
KILE 241156Z AUTO 22004KT 10SM CLR 07/M01 A2998 RMK AO2 SLP173 T00721006 10100 20061 56009
KILE 241056Z AUTO 20004KT 10SM CLR 07/M01 A2998 RMK AO2 SLP171 T00721006
KILE 240956Z AUTO 21004KT 10SM CLR 08/M01 A2999 RMK AO2 SLP173 T00781006
KILE 240856Z AUTO 23003KT 10SM CLR 08/M01 A3001 RMK AO2 SLP179 T00831006 58015
KILE 240756Z AUTO 19003KT 10SM CLR 08/00 A3002 RMK AO2 SLP184 T00780000
KILE 240656Z AUTO 00000KT 10SM CLR 07/01 A3004 RMK AO2 SLP192 T00720006
KILE 240556Z AUTO 19004KT 10SM CLR 09/M01 A3005 RMK AO2 SLP196 T00941006 10161 20094 402170000 58011
KILE 240456Z AUTO 18005KT 10SM CLR 10/M01 A3007 RMK AO2 SLP203 T01001006
KILE 240356Z AUTO 19006KT 10SM CLR 10/00 A3008 RMK AO2 SLP208 T01000000
KILE 240256Z AUTO 17003KT 10SM CLR 11/00 A3009 RMK AO2 SLP209 T01110000 53007
KILE 240156Z AUTO 16003KT 7SM CLR 11/01 A3007 RMK AO2 SLP206 T01110006
KILE 240056Z AUTO 15005KT 10SM CLR 14/01 A3008 RMK AO2 SLP207 T01390006
KILE 232356Z AUTO 12005KT 10SM CLR 16/01 A3007 RMK AO2 SLP203 T01610006 10217 20161 55000
KILE 232256Z AUTO 13004KT 10SM CLR 21/01 A3006 RMK AO2 SLP202 T02060006
KILE 232156Z AUTO 00000KT 10SM CLR 22/M01 A3006 RMK AO2 SLP199 T02171006
KILE 232056Z AUTO VRB03KT 10SM CLR 21/M01 A3007 RMK AO2 SLP203 T02111011 56032
KILE 231856Z AUTO 25005KT 10SM CLR 20/M02 A3012 RMK AO2 SLP223 T02001022
KILE 231756Z AUTO 15004KT 10SM CLR 17/M02 A3017 RMK AO2 SLP239 T01721022 10172 20006 58019
KILE 231656Z AUTO 00000KT 10SM CLR 14/M02 A3021 RMK AO2 SLP253 T01441022
KILE 231556Z AUTO 19004KT 10SM CLR 11/M01 A3022 RMK AO2 SLP256 T01111006
KILE 231456Z AUTO 00000KT 10SM CLR 07/M01 A3022 RMK AO2 SLP255 T00671011 53006
KILE 231356Z AUTO 00000KT 10SM CLR 03/M01 A3022 RMK AO2 SLP255 T00281006
KILE 231256Z AUTO 27003KT 10SM CLR 01/M03 A3021 RMK AO2 SLP251 T00061028 FZRANO
KILE 231156Z AUTO 00000KT 10SM CLR 01/M03 A3021 RMK AO2 SLP249 T00061033 10039 20000 56007 FZRANO
KILE 231056Z AUTO 00000KT 10SM CLR 01/M03 A3021 RMK AO2 SLP252 T00111033 FZRANO
KILE 230956Z AUTO 00000KT 10SM CLR 01/M03 A3022 RMK AO2 SLP254 T00111028 FZRANO
KILE 230856Z AUTO 00000KT 10SM CLR 02/M04 A3023 RMK AO2 SLP257 T00221039 56012 FZRANO
KILE 230756Z AUTO 30003KT 10SM CLR 03/M04 A3024 RMK AO2 SLP265 T00331039
KILE 230656Z AUTO 30003KT 10SM CLR 03/M04 A3025 RMK AO2 SLP265 T00281039